sensor_id;sensor_type;location;lat;lon;timestamp;temperature;humidity
9658;DHT22;4867;48.112;11.622;2022-09-09T00:02:24;15.60;99.90
9658;DHT22;4867;48.112;11.622;2022-09-09T00:05:17;15.50;99.90
9658;DHT22;4867;48.112;11.622;2022-09-09T00:07:50;15.60;99.90
9658;DHT22;4867;48.112;11.622;2022-09-09T00:10:37;15.50;99.90
9658;DHT22;4867;48.112;11.622;2022-09-09T00:13:23;15.40;99.90
9658;DHT22;4867;48.112;11.622;2022-09-09T00:16:22;15.30;99.90
9658;DHT22;4867;48.112;11.622;2022-09-09T00:19:15;15.30;99.90
9658;DHT22;4867;48.112;11.622;2022-09-09T00:24:29;15.20;99.90
9658;DHT22;4867;48.112;11.622;2022-09-09T00:27:52;15.20;99.90
9658;DHT22;4867;48.112;11.622;2022-09-09T00:32:48;15.20;99.90
9658;DHT22;4867;48.112;11.622;2022-09-09T00:35:25;15.10;99.90
9658;DHT22;4867;48.112;11.622;2022-09-09T00:37:57;15.10;99.90
9658;DHT22;4867;48.112;11.622;2022-09-09T00:40:32;15.20;99.90
9658;DHT22;4867;48.112;11.622;2022-09-09T00:52:16;15.20;99.90
9658;DHT22;4867;48.112;11.622;2022-09-09T00:54:28;15.20;99.90
9658;DHT22;4867;48.112;11.622;2022-09-09T00:59:55;15.20;99.90
9658;DHT22;4867;48.112;11.622;2022-09-09T01:02:59;15.20;99.90
9658;DHT22;4867;48.112;11.622;2022-09-09T01:05:50;15.30;99.90
9658;DHT22;4867;48.112;11.622;2022-09-09T01:10:56;15.30;99.90
9658;DHT22;4867;48.112;11.622;2022-09-09T01:13:30;15.90;99.90
9658;DHT22;4867;48.112;11.622;2022-09-09T01:16:04;15.50;99.90
9658;DHT22;4867;48.112;11.622;2022-09-09T01:18:43;15.40;99.90
9658;DHT22;4867;48.112;11.622;2022-09-09T01:22:06;15.40;99.90
9658;DHT22;4867;48.112;11.622;2022-09-09T01:24:30;15.40;99.90
9658;DHT22;4867;48.112;11.622;2022-09-09T01:27:15;15.40;99.90
9658;DHT22;4867;48.112;11.622;2022-09-09T01:29:48;15.50;99.90
9658;DHT22;4867;48.112;11.622;2022-09-09T01:32:56;15.50;99.90
9658;DHT22;4867;48.112;11.622;2022-09-09T01:38:18;15.50;99.90
9658;DHT22;4867;48.112;11.622;2022-09-09T01:40:48;15.50;99.90
9658;DHT22;4867;48.112;11.622;2022-09-09T01:43:25;15.40;99.90
9658;DHT22;4867;48.112;11.622;2022-09-09T01:45:55;15.50;99.90
9658;DHT22;4867;48.112;11.622;2022-09-09T01:48:25;15.50;99.90
9658;DHT22;4867;48.112;11.622;2022-09-09T01:51:03;15.50;99.90
9658;DHT22;4867;48.112;11.622;2022-09-09T01:53:31;15.40;99.90
9658;DHT22;4867;48.112;11.622;2022-09-09T01:56:28;15.40;99.90
9658;DHT22;4867;48.112;11.622;2022-09-09T01:59:23;15.40;99.90
9658;DHT22;4867;48.112;11.622;2022-09-09T02:02:12;15.40;99.90
9658;DHT22;4867;48.112;11.622;2022-09-09T02:04:54;15.40;99.90
9658;DHT22;4867;48.112;11.622;2022-09-09T02:07:42;15.50;99.90
9658;DHT22;4867;48.112;11.622;2022-09-09T02:13:14;15.20;99.90
9658;DHT22;4867;48.112;11.622;2022-09-09T02:16:18;15.20;99.90
9658;DHT22;4867;48.112;11.622;2022-09-09T02:21:37;15.10;99.90
9658;DHT22;4867;48.112;11.622;2022-09-09T02:24:06;15.10;99.90
9658;DHT22;4867;48.112;11.622;2022-09-09T02:26:43;15.10;99.90
9658;DHT22;4867;48.112;11.622;2022-09-09T02:29:41;15.10;99.90
9658;DHT22;4867;48.112;11.622;2022-09-09T02:32:17;15.20;99.90
9658;DHT22;4867;48.112;11.622;2022-09-09T02:34:53;15.20;99.90
9658;DHT22;4867;48.112;11.622;2022-09-09T02:37:29;15.10;99.90
9658;DHT22;4867;48.112;11.622;2022-09-09T02:39:58;15.20;99.90
9658;DHT22;4867;48.112;11.622;2022-09-09T02:42:26;15.10;99.90
9658;DHT22;4867;48.112;11.622;2022-09-09T02:44:57;15.00;99.90
9658;DHT22;4867;48.112;11.622;2022-09-09T02:47:35;15.20;99.90
9658;DHT22;4867;48.112;11.622;2022-09-09T02:50:17;15.10;99.90
9658;DHT22;4867;48.112;11.622;2022-09-09T02:56:01;15.10;99.90
9658;DHT22;4867;48.112;11.622;2022-09-09T02:58:32;15.10;99.90
9658;DHT22;4867;48.112;11.622;2022-09-09T03:01:04;15.10;99.90
9658;DHT22;4867;48.112;11.622;2022-09-09T03:03:33;15.10;99.90
9658;DHT22;4867;48.112;11.622;2022-09-09T03:06:10;15.10;99.90
9658;DHT22;4867;48.112;11.622;2022-09-09T03:08:55;15.20;99.90
9658;DHT22;4867;48.112;11.622;2022-09-09T03:11:27;15.20;99.90
9658;DHT22;4867;48.112;11.622;2022-09-09T03:13:57;15.20;99.90
9658;DHT22;4867;48.112;11.622;2022-09-09T03:16:29;15.20;99.90
9658;DHT22;4867;48.112;11.622;2022-09-09T03:19:08;15.20;99.90
9658;DHT22;4867;48.112;11.622;2022-09-09T03:21:37;15.20;99.90
9658;DHT22;4867;48.112;11.622;2022-09-09T03:24:06;15.20;99.90
9658;DHT22;4867;48.112;11.622;2022-09-09T03:26:34;15.20;99.90
9658;DHT22;4867;48.112;11.622;2022-09-09T03:29:03;15.20;99.90
9658;DHT22;4867;48.112;11.622;2022-09-09T03:31:34;15.20;99.90
9658;DHT22;4867;48.112;11.622;2022-09-09T03:34:03;15.20;99.90
9658;DHT22;4867;48.112;11.622;2022-09-09T03:36:33;15.10;99.90
9658;DHT22;4867;48.112;11.622;2022-09-09T03:39:01;15.10;99.90
9658;DHT22;4867;48.112;11.622;2022-09-09T03:41:31;15.00;99.90
9658;DHT22;4867;48.112;11.622;2022-09-09T03:44:00;15.00;99.90
9658;DHT22;4867;48.112;11.622;2022-09-09T03:46:33;15.00;99.90
9658;DHT22;4867;48.112;11.622;2022-09-09T03:49:02;15.00;99.90
9658;DHT22;4867;48.112;11.622;2022-09-09T03:51:31;15.90;99.90
9658;DHT22;4867;48.112;11.622;2022-09-09T03:54:05;14.90;99.90
9658;DHT22;4867;48.112;11.622;2022-09-09T03:56:37;15.00;99.90
9658;DHT22;4867;48.112;11.622;2022-09-09T03:59:08;15.10;99.90
9658;DHT22;4867;48.112;11.622;2022-09-09T04:01:36;14.90;99.90
9658;DHT22;4867;48.112;11.622;2022-09-09T04:04:03;15.00;99.90
9658;DHT22;4867;48.112;11.622;2022-09-09T04:06:31;15.00;99.90
9658;DHT22;4867;48.112;11.622;2022-09-09T04:08:59;15.10;99.90
9658;DHT22;4867;48.112;11.622;2022-09-09T04:11:31;15.10;99.90
9658;DHT22;4867;48.112;11.622;2022-09-09T04:14:00;15.20;99.90
9658;DHT22;4867;48.112;11.622;2022-09-09T04:16:33;15.10;99.90
9658;DHT22;4867;48.112;11.622;2022-09-09T04:19:03;15.10;99.90
9658;DHT22;4867;48.112;11.622;2022-09-09T04:21:32;15.20;99.90
9658;DHT22;4867;48.112;11.622;2022-09-09T04:24:02;15.10;99.90
9658;DHT22;4867;48.112;11.622;2022-09-09T04:26:44;15.10;99.90
9658;DHT22;4867;48.112;11.622;2022-09-09T04:29:14;15.10;99.90
9658;DHT22;4867;48.112;11.622;2022-09-09T04:31:47;15.10;99.90
9658;DHT22;4867;48.112;11.622;2022-09-09T04:34:15;15.00;99.90
9658;DHT22;4867;48.112;11.622;2022-09-09T04:36:43;15.10;99.90
9658;DHT22;4867;48.112;11.622;2022-09-09T04:39:13;15.10;99.90
9658;DHT22;4867;48.112;11.622;2022-09-09T04:41:40;15.00;99.90
9658;DHT22;4867;48.112;11.622;2022-09-09T04:44:17;14.90;99.90
9658;DHT22;4867;48.112;11.622;2022-09-09T04:46:45;14.90;99.90
9658;DHT22;4867;48.112;11.622;2022-09-09T04:49:13;14.70;99.90
9658;DHT22;4867;48.112;11.622;2022-09-09T04:51:42;14.80;99.90
9658;DHT22;4867;48.112;11.622;2022-09-09T04:54:10;14.80;99.90
9658;DHT22;4867;48.112;11.622;2022-09-09T04:56:40;14.70;99.90
9658;DHT22;4867;48.112;11.622;2022-09-09T04:59:10;14.70;99.90
9658;DHT22;4867;48.112;11.622;2022-09-09T05:01:45;14.70;99.90
9658;DHT22;4867;48.112;11.622;2022-09-09T05:04:13;14.70;99.90
9658;DHT22;4867;48.112;11.622;2022-09-09T05:06:42;14.80;99.90
9658;DHT22;4867;48.112;11.622;2022-09-09T05:09:11;14.90;99.90
9658;DHT22;4867;48.112;11.622;2022-09-09T05:11:39;14.80;99.90
9658;DHT22;4867;48.112;11.622;2022-09-09T05:14:17;14.80;99.90
9658;DHT22;4867;48.112;11.622;2022-09-09T05:16:45;14.80;99.90
9658;DHT22;4867;48.112;11.622;2022-09-09T05:19:16;15.00;99.90
9658;DHT22;4867;48.112;11.622;2022-09-09T05:21:51;14.90;99.90
9658;DHT22;4867;48.112;11.622;2022-09-09T05:24:24;15.00;99.90
9658;DHT22;4867;48.112;11.622;2022-09-09T05:26:55;15.00;99.90
9658;DHT22;4867;48.112;11.622;2022-09-09T05:29:26;15.00;99.90
9658;DHT22;4867;48.112;11.622;2022-09-09T05:31:56;15.00;99.90
9658;DHT22;4867;48.112;11.622;2022-09-09T05:34:24;15.00;99.90
9658;DHT22;4867;48.112;11.622;2022-09-09T05:36:52;15.10;99.90
9658;DHT22;4867;48.112;11.622;2022-09-09T05:39:26;15.10;99.90
9658;DHT22;4867;48.112;11.622;2022-09-09T05:41:56;15.20;99.90
9658;DHT22;4867;48.112;11.622;2022-09-09T05:44:25;15.10;99.90
9658;DHT22;4867;48.112;11.622;2022-09-09T05:46:55;15.10;99.90
9658;DHT22;4867;48.112;11.622;2022-09-09T05:49:26;15.10;99.90
9658;DHT22;4867;48.112;11.622;2022-09-09T05:51:53;15.20;99.90
9658;DHT22;4867;48.112;11.622;2022-09-09T05:54:23;15.20;99.90
9658;DHT22;4867;48.112;11.622;2022-09-09T05:56:52;15.30;99.90
9658;DHT22;4867;48.112;11.622;2022-09-09T05:59:20;15.20;99.90
9658;DHT22;4867;48.112;11.622;2022-09-09T06:01:55;15.30;99.90
9658;DHT22;4867;48.112;11.622;2022-09-09T06:04:32;15.40;99.90
9658;DHT22;4867;48.112;11.622;2022-09-09T06:07:02;15.40;99.90
9658;DHT22;4867;48.112;11.622;2022-09-09T06:09:31;15.50;99.90
9658;DHT22;4867;48.112;11.622;2022-09-09T06:11:59;15.60;99.90
9658;DHT22;4867;48.112;11.622;2022-09-09T06:14:32;15.60;99.90
9658;DHT22;4867;48.112;11.622;2022-09-09T06:17:01;15.80;99.90
9658;DHT22;4867;48.112;11.622;2022-09-09T06:19:33;15.70;99.90
9658;DHT22;4867;48.112;11.622;2022-09-09T06:22:01;15.80;99.90
9658;DHT22;4867;48.112;11.622;2022-09-09T06:24:32;15.70;99.90
9658;DHT22;4867;48.112;11.622;2022-09-09T06:27:03;15.70;99.90
9658;DHT22;4867;48.112;11.622;2022-09-09T06:29:34;15.70;99.90
9658;DHT22;4867;48.112;11.622;2022-09-09T06:32:02;15.70;99.90
9658;DHT22;4867;48.112;11.622;2022-09-09T06:34:30;15.70;99.90
9658;DHT22;4867;48.112;11.622;2022-09-09T06:37:02;15.70;99.90
9658;DHT22;4867;48.112;11.622;2022-09-09T06:39:38;15.70;99.90
9658;DHT22;4867;48.112;11.622;2022-09-09T06:42:07;15.70;99.90
9658;DHT22;4867;48.112;11.622;2022-09-09T06:45:01;15.70;99.90
9658;DHT22;4867;48.112;11.622;2022-09-09T06:47:36;15.80;99.90
9658;DHT22;4867;48.112;11.622;2022-09-09T06:50:04;15.80;99.90
9658;DHT22;4867;48.112;11.622;2022-09-09T06:52:35;15.90;99.90
9658;DHT22;4867;48.112;11.622;2022-09-09T06:55:03;16.00;99.90
9658;DHT22;4867;48.112;11.622;2022-09-09T06:57:32;16.20;99.90
9658;DHT22;4867;48.112;11.622;2022-09-09T07:00:07;16.30;99.90
9658;DHT22;4867;48.112;11.622;2022-09-09T07:02:36;16.50;99.90
9658;DHT22;4867;48.112;11.622;2022-09-09T07:05:07;16.50;99.90
9658;DHT22;4867;48.112;11.622;2022-09-09T07:07:35;16.60;99.90
9658;DHT22;4867;48.112;11.622;2022-09-09T07:10:05;16.70;99.90
9658;DHT22;4867;48.112;11.622;2022-09-09T07:12:37;16.70;99.90
9658;DHT22;4867;48.112;11.622;2022-09-09T07:15:09;16.70;99.90
9658;DHT22;4867;48.112;11.622;2022-09-09T07:17:36;16.70;99.90
9658;DHT22;4867;48.112;11.622;2022-09-09T07:20:04;16.70;99.90
9658;DHT22;4867;48.112;11.622;2022-09-09T07:22:32;16.70;99.90
9658;DHT22;4867;48.112;11.622;2022-09-09T07:25:01;16.70;99.90
9658;DHT22;4867;48.112;11.622;2022-09-09T07:27:29;16.70;99.90
9658;DHT22;4867;48.112;11.622;2022-09-09T07:29:57;16.60;99.90
9658;DHT22;4867;48.112;11.622;2022-09-09T07:32:25;16.60;99.90
9658;DHT22;4867;48.112;11.622;2022-09-09T07:34:53;16.60;99.90
9658;DHT22;4867;48.112;11.622;2022-09-09T07:37:21;16.50;99.90
9658;DHT22;4867;48.112;11.622;2022-09-09T07:39:49;16.50;99.90
9658;DHT22;4867;48.112;11.622;2022-09-09T07:42:22;16.60;99.90
9658;DHT22;4867;48.112;11.622;2022-09-09T07:44:58;16.60;99.90
9658;DHT22;4867;48.112;11.622;2022-09-09T07:47:30;16.60;99.90
9658;DHT22;4867;48.112;11.622;2022-09-09T07:49:58;16.80;99.90
9658;DHT22;4867;48.112;11.622;2022-09-09T07:52:30;16.80;99.90
9658;DHT22;4867;48.112;11.622;2022-09-09T07:55:01;17.00;99.90
9658;DHT22;4867;48.112;11.622;2022-09-09T07:57:32;17.10;99.90
9658;DHT22;4867;48.112;11.622;2022-09-09T08:00:00;17.30;99.90
9658;DHT22;4867;48.112;11.622;2022-09-09T08:02:38;17.30;99.90
9658;DHT22;4867;48.112;11.622;2022-09-09T08:05:07;17.40;99.90
9658;DHT22;4867;48.112;11.622;2022-09-09T08:07:35;17.40;99.90
9658;DHT22;4867;48.112;11.622;2022-09-09T08:10:04;17.40;99.90
9658;DHT22;4867;48.112;11.622;2022-09-09T08:12:33;17.50;99.90
9658;DHT22;4867;48.112;11.622;2022-09-09T08:15:03;17.60;99.90
9658;DHT22;4867;48.112;11.622;2022-09-09T08:17:33;17.70;99.90
9658;DHT22;4867;48.112;11.622;2022-09-09T08:20:05;17.80;99.90
9658;DHT22;4867;48.112;11.622;2022-09-09T08:22:34;17.90;99.90
9658;DHT22;4867;48.112;11.622;2022-09-09T08:25:02;18.00;99.90
9658;DHT22;4867;48.112;11.622;2022-09-09T08:27:34;18.00;99.90
9658;DHT22;4867;48.112;11.622;2022-09-09T08:30:03;17.90;99.90
9658;DHT22;4867;48.112;11.622;2022-09-09T08:32:30;18.00;99.90
9658;DHT22;4867;48.112;11.622;2022-09-09T08:34:58;18.10;99.90
9658;DHT22;4867;48.112;11.622;2022-09-09T08:37:29;18.30;99.90
9658;DHT22;4867;48.112;11.622;2022-09-09T08:39:56;18.30;99.90
9658;DHT22;4867;48.112;11.622;2022-09-09T08:42:44;18.30;99.90
9658;DHT22;4867;48.112;11.622;2022-09-09T08:45:25;18.30;99.90
9658;DHT22;4867;48.112;11.622;2022-09-09T08:48:17;18.30;99.90
9658;DHT22;4867;48.112;11.622;2022-09-09T08:50:50;18.30;99.90
9658;DHT22;4867;48.112;11.622;2022-09-09T08:53:34;18.30;99.90
9658;DHT22;4867;48.112;11.622;2022-09-09T08:56:24;18.30;99.90
9658;DHT22;4867;48.112;11.622;2022-09-09T08:58:56;18.30;99.90
9658;DHT22;4867;48.112;11.622;2022-09-09T09:01:53;18.30;99.90
9658;DHT22;4867;48.112;11.622;2022-09-09T09:07:32;18.30;99.90
9658;DHT22;4867;48.112;11.622;2022-09-09T09:10:38;18.30;99.90
9658;DHT22;4867;48.112;11.622;2022-09-09T09:16:33;18.40;99.90
9658;DHT22;4867;48.112;11.622;2022-09-09T09:19:03;18.40;99.90
9658;DHT22;4867;48.112;11.622;2022-09-09T09:22:30;18.50;99.90
9658;DHT22;4867;48.112;11.622;2022-09-09T09:24:54;18.60;99.90
9658;DHT22;4867;48.112;11.622;2022-09-09T09:27:34;18.80;99.90
9658;DHT22;4867;48.112;11.622;2022-09-09T09:30:22;19.00;99.90
9658;DHT22;4867;48.112;11.622;2022-09-09T09:33:05;19.20;99.90
9658;DHT22;4867;48.112;11.622;2022-09-09T09:35:36;19.30;99.90
9658;DHT22;4867;48.112;11.622;2022-09-09T09:38:17;19.40;99.90
9658;DHT22;4867;48.112;11.622;2022-09-09T09:41:05;19.50;99.90
9658;DHT22;4867;48.112;11.622;2022-09-09T09:43:35;19.40;99.90
9658;DHT22;4867;48.112;11.622;2022-09-09T09:46:20;19.30;99.90
9658;DHT22;4867;48.112;11.622;2022-09-09T09:49:03;19.30;99.90
9658;DHT22;4867;48.112;11.622;2022-09-09T09:51:33;19.30;99.90
9658;DHT22;4867;48.112;11.622;2022-09-09T09:56:43;19.20;99.90
9658;DHT22;4867;48.112;11.622;2022-09-09T09:59:32;19.20;99.90
9658;DHT22;4867;48.112;11.622;2022-09-09T10:02:20;19.10;99.90
9658;DHT22;4867;48.112;11.622;2022-09-09T10:05:08;19.20;99.90
9658;DHT22;4867;48.112;11.622;2022-09-09T10:07:42;19.00;99.90
9658;DHT22;4867;48.112;11.622;2022-09-09T10:10:23;19.00;99.90
9658;DHT22;4867;48.112;11.622;2022-09-09T10:13:05;19.00;99.90
9658;DHT22;4867;48.112;11.622;2022-09-09T10:16:06;19.00;99.90
9658;DHT22;4867;48.112;11.622;2022-09-09T10:18:56;19.00;99.90
9658;DHT22;4867;48.112;11.622;2022-09-09T10:21:51;19.10;99.90
9658;DHT22;4867;48.112;11.622;2022-09-09T10:38:20;18.70;99.90
9658;DHT22;4867;48.112;11.622;2022-09-09T10:51:50;19.10;99.90
9658;DHT22;4867;48.112;11.622;2022-09-09T10:54:35;19.20;99.90
9658;DHT22;4867;48.112;11.622;2022-09-09T10:57:41;19.20;99.90
9658;DHT22;4867;48.112;11.622;2022-09-09T11:00:23;19.40;99.90
9658;DHT22;4867;48.112;11.622;2022-09-09T11:03:02;19.50;99.90
9658;DHT22;4867;48.112;11.622;2022-09-09T11:05:52;19.70;99.90
9658;DHT22;4867;48.112;11.622;2022-09-09T11:08:27;19.90;99.90
9658;DHT22;4867;48.112;11.622;2022-09-09T11:11:11;19.90;99.90
9658;DHT22;4867;48.112;11.622;2022-09-09T11:19:28;20.30;99.90
9658;DHT22;4867;48.112;11.622;2022-09-09T11:21:58;20.40;99.90
9658;DHT22;4867;48.112;11.622;2022-09-09T11:24:28;20.50;99.90
9658;DHT22;4867;48.112;11.622;2022-09-09T11:27:21;20.60;99.90
9658;DHT22;4867;48.112;11.622;2022-09-09T11:30:20;20.60;99.90
9658;DHT22;4867;48.112;11.622;2022-09-09T11:41:36;20.70;99.90
9658;DHT22;4867;48.112;11.622;2022-09-09T11:44:12;20.70;99.90
9658;DHT22;4867;48.112;11.622;2022-09-09T11:46:46;20.80;99.90
9658;DHT22;4867;48.112;11.622;2022-09-09T11:49:28;21.00;99.90
9658;DHT22;4867;48.112;11.622;2022-09-09T11:51:56;21.00;99.90
9658;DHT22;4867;48.112;11.622;2022-09-09T11:54:46;20.90;99.90
9658;DHT22;4867;48.112;11.622;2022-09-09T11:57:32;20.90;99.90
9658;DHT22;4867;48.112;11.622;2022-09-09T12:00:01;21.10;99.90
9658;DHT22;4867;48.112;11.622;2022-09-09T12:02:48;21.30;99.90
9658;DHT22;4867;48.112;11.622;2022-09-09T12:05:17;21.30;99.90
9658;DHT22;4867;48.112;11.622;2022-09-09T12:07:57;21.20;99.90
9658;DHT22;4867;48.112;11.622;2022-09-09T12:10:29;21.10;99.90
9658;DHT22;4867;48.112;11.622;2022-09-09T12:13:08;21.00;99.90
9658;DHT22;4867;48.112;11.622;2022-09-09T12:15:47;20.90;99.90
9658;DHT22;4867;48.112;11.622;2022-09-09T12:18:42;20.90;99.90
9658;DHT22;4867;48.112;11.622;2022-09-09T12:24:15;21.00;99.90
9658;DHT22;4867;48.112;11.622;2022-09-09T12:27:01;21.20;99.90
9658;DHT22;4867;48.112;11.622;2022-09-09T12:29:49;21.20;99.90
9658;DHT22;4867;48.112;11.622;2022-09-09T12:32:24;21.30;99.90
9658;DHT22;4867;48.112;11.622;2022-09-09T12:34:55;21.30;99.90
9658;DHT22;4867;48.112;11.622;2022-09-09T12:40:28;21.50;99.90
9658;DHT22;4867;48.112;11.622;2022-09-09T12:43:00;21.60;99.90
9658;DHT22;4867;48.112;11.622;2022-09-09T12:45:32;21.60;99.90
9658;DHT22;4867;48.112;11.622;2022-09-09T12:48:04;21.60;99.90
9658;DHT22;4867;48.112;11.622;2022-09-09T12:50:38;21.80;99.90
9658;DHT22;4867;48.112;11.622;2022-09-09T12:53:24;21.90;99.90
9658;DHT22;4867;48.112;11.622;2022-09-09T12:56:09;22.10;99.90
9658;DHT22;4867;48.112;11.622;2022-09-09T12:58:47;22.20;99.90
9658;DHT22;4867;48.112;11.622;2022-09-09T13:01:27;22.30;99.90
9658;DHT22;4867;48.112;11.622;2022-09-09T13:03:55;22.20;99.90
9658;DHT22;4867;48.112;11.622;2022-09-09T13:06:25;22.20;99.90
9658;DHT22;4867;48.112;11.622;2022-09-09T13:08:58;22.20;99.90
9658;DHT22;4867;48.112;11.622;2022-09-09T13:11:41;22.20;99.90
9658;DHT22;4867;48.112;11.622;2022-09-09T13:14:42;22.20;99.90
9658;DHT22;4867;48.112;11.622;2022-09-09T13:17:23;22.10;99.90
9658;DHT22;4867;48.112;11.622;2022-09-09T13:19:51;22.00;99.90
9658;DHT22;4867;48.112;11.622;2022-09-09T13:22:36;21.80;99.90
9658;DHT22;4867;48.112;11.622;2022-09-09T13:25:28;21.80;99.90
9658;DHT22;4867;48.112;11.622;2022-09-09T13:28:05;21.70;99.90
9658;DHT22;4867;48.112;11.622;2022-09-09T13:30:37;21.60;99.90
9658;DHT22;4867;48.112;11.622;2022-09-09T13:33:31;21.70;99.90
9658;DHT22;4867;48.112;11.622;2022-09-09T13:36:08;21.60;99.90
9658;DHT22;4867;48.112;11.622;2022-09-09T13:38:38;21.60;99.90
9658;DHT22;4867;48.112;11.622;2022-09-09T13:41:09;21.70;99.90
9658;DHT22;4867;48.112;11.622;2022-09-09T13:43:43;21.60;99.90
9658;DHT22;4867;48.112;11.622;2022-09-09T13:49:01;21.20;99.90
9658;DHT22;4867;48.112;11.622;2022-09-09T13:54:05;20.80;99.90
9658;DHT22;4867;48.112;11.622;2022-09-09T13:56:34;20.70;99.90
9658;DHT22;4867;48.112;11.622;2022-09-09T13:59:04;20.70;99.90
9658;DHT22;4867;48.112;11.622;2022-09-09T14:01:31;20.70;99.90
9658;DHT22;4867;48.112;11.622;2022-09-09T14:04:02;20.50;99.90
9658;DHT22;4867;48.112;11.622;2022-09-09T14:06:29;20.40;99.90
9658;DHT22;4867;48.112;11.622;2022-09-09T14:08:57;20.30;99.90
9658;DHT22;4867;48.112;11.622;2022-09-09T14:11:24;20.20;99.90
9658;DHT22;4867;48.112;11.622;2022-09-09T14:13:51;20.20;99.90
9658;DHT22;4867;48.112;11.622;2022-09-09T14:16:19;20.20;99.90
9658;DHT22;4867;48.112;11.622;2022-09-09T14:18:47;20.30;99.90
9658;DHT22;4867;48.112;11.622;2022-09-09T14:21:15;20.30;99.90
9658;DHT22;4867;48.112;11.622;2022-09-09T14:23:42;20.30;99.90
9658;DHT22;4867;48.112;11.622;2022-09-09T14:26:09;20.30;99.90
9658;DHT22;4867;48.112;11.622;2022-09-09T14:28:37;20.40;99.90
9658;DHT22;4867;48.112;11.622;2022-09-09T14:31:22;20.50;99.90
9658;DHT22;4867;48.112;11.622;2022-09-09T14:33:49;20.60;99.90
9658;DHT22;4867;48.112;11.622;2022-09-09T14:36:19;20.60;99.90
9658;DHT22;4867;48.112;11.622;2022-09-09T14:38:47;20.50;99.90
9658;DHT22;4867;48.112;11.622;2022-09-09T14:41:18;20.40;99.90
9658;DHT22;4867;48.112;11.622;2022-09-09T14:43:46;20.30;99.90
9658;DHT22;4867;48.112;11.622;2022-09-09T14:46:17;20.20;99.90
9658;DHT22;4867;48.112;11.622;2022-09-09T14:48:45;20.20;99.90
9658;DHT22;4867;48.112;11.622;2022-09-09T14:51:18;20.00;99.90
9658;DHT22;4867;48.112;11.622;2022-09-09T14:53:46;19.90;99.90
9658;DHT22;4867;48.112;11.622;2022-09-09T14:56:16;19.90;99.90
9658;DHT22;4867;48.112;11.622;2022-09-09T14:58:44;19.70;99.90
9658;DHT22;4867;48.112;11.622;2022-09-09T15:01:14;19.80;99.90
9658;DHT22;4867;48.112;11.622;2022-09-09T15:03:43;19.70;99.90
9658;DHT22;4867;48.112;11.622;2022-09-09T15:06:15;19.70;99.90
9658;DHT22;4867;48.112;11.622;2022-09-09T15:08:44;19.60;99.90
9658;DHT22;4867;48.112;11.622;2022-09-09T15:11:13;19.70;99.90
9658;DHT22;4867;48.112;11.622;2022-09-09T15:13:41;19.60;99.90
9658;DHT22;4867;48.112;11.622;2022-09-09T15:16:15;19.60;99.90
9658;DHT22;4867;48.112;11.622;2022-09-09T15:18:44;19.50;99.90
9658;DHT22;4867;48.112;11.622;2022-09-09T15:21:14;19.50;99.90
9658;DHT22;4867;48.112;11.622;2022-09-09T15:23:43;19.50;99.90
9658;DHT22;4867;48.112;11.622;2022-09-09T15:26:10;19.50;99.90
9658;DHT22;4867;48.112;11.622;2022-09-09T15:28:38;19.30;99.90
9658;DHT22;4867;48.112;11.622;2022-09-09T15:31:18;19.30;99.90
9658;DHT22;4867;48.112;11.622;2022-09-09T15:33:52;19.20;99.90
9658;DHT22;4867;48.112;11.622;2022-09-09T15:36:23;19.20;99.90
9658;DHT22;4867;48.112;11.622;2022-09-09T15:38:52;19.20;99.90
9658;DHT22;4867;48.112;11.622;2022-09-09T15:41:20;19.10;99.90
9658;DHT22;4867;48.112;11.622;2022-09-09T15:43:50;19.00;99.90
9658;DHT22;4867;48.112;11.622;2022-09-09T15:46:34;19.00;99.90
9658;DHT22;4867;48.112;11.622;2022-09-09T15:51:39;19.00;99.90
9658;DHT22;4867;48.112;11.622;2022-09-09T15:54:15;19.00;99.90
9658;DHT22;4867;48.112;11.622;2022-09-09T15:56:45;19.10;99.90
9658;DHT22;4867;48.112;11.622;2022-09-09T15:59:13;19.30;99.90
9658;DHT22;4867;48.112;11.622;2022-09-09T16:01:42;19.60;99.90
9658;DHT22;4867;48.112;11.622;2022-09-09T16:04:11;19.80;99.90
9658;DHT22;4867;48.112;11.622;2022-09-09T16:06:39;19.90;99.90
9658;DHT22;4867;48.112;11.622;2022-09-09T16:09:08;19.90;99.90
9658;DHT22;4867;48.112;11.622;2022-09-09T16:11:37;19.90;99.90
9658;DHT22;4867;48.112;11.622;2022-09-09T16:14:05;19.60;99.90
9658;DHT22;4867;48.112;11.622;2022-09-09T16:16:34;19.60;99.90
9658;DHT22;4867;48.112;11.622;2022-09-09T16:19:08;19.50;99.90
9658;DHT22;4867;48.112;11.622;2022-09-09T16:21:40;19.40;99.90
9658;DHT22;4867;48.112;11.622;2022-09-09T16:24:10;19.50;99.90
9658;DHT22;4867;48.112;11.622;2022-09-09T16:26:44;19.50;99.90
9658;DHT22;4867;48.112;11.622;2022-09-09T16:29:15;19.40;99.90
9658;DHT22;4867;48.112;11.622;2022-09-09T16:31:45;19.50;99.90
9658;DHT22;4867;48.112;11.622;2022-09-09T16:34:14;19.60;99.90
9658;DHT22;4867;48.112;11.622;2022-09-09T16:36:42;19.60;99.90
9658;DHT22;4867;48.112;11.622;2022-09-09T16:39:15;19.60;99.90
9658;DHT22;4867;48.112;11.622;2022-09-09T16:41:43;19.70;99.90
9658;DHT22;4867;48.112;11.622;2022-09-09T16:44:13;19.70;99.90
9658;DHT22;4867;48.112;11.622;2022-09-09T16:46:42;19.70;99.90
9658;DHT22;4867;48.112;11.622;2022-09-09T16:49:12;19.60;99.90
9658;DHT22;4867;48.112;11.622;2022-09-09T16:51:42;19.60;99.90
9658;DHT22;4867;48.112;11.622;2022-09-09T16:54:10;19.70;99.90
9658;DHT22;4867;48.112;11.622;2022-09-09T16:56:40;19.60;99.90
9658;DHT22;4867;48.112;11.622;2022-09-09T17:01:41;19.40;99.90
9658;DHT22;4867;48.112;11.622;2022-09-09T17:04:13;19.30;99.90
9658;DHT22;4867;48.112;11.622;2022-09-09T17:06:49;19.20;99.90
9658;DHT22;4867;48.112;11.622;2022-09-09T17:09:17;19.10;99.90
9658;DHT22;4867;48.112;11.622;2022-09-09T17:11:45;19.00;99.90
9658;DHT22;4867;48.112;11.622;2022-09-09T17:14:16;18.80;99.90
9658;DHT22;4867;48.112;11.622;2022-09-09T17:16:44;18.70;99.90
9658;DHT22;4867;48.112;11.622;2022-09-09T17:19:11;18.60;99.90
9658;DHT22;4867;48.112;11.622;2022-09-09T17:21:39;18.40;99.90
9658;DHT22;4867;48.112;11.622;2022-09-09T17:24:27;18.30;99.90
9658;DHT22;4867;48.112;11.622;2022-09-09T17:26:56;18.20;99.90
9658;DHT22;4867;48.112;11.622;2022-09-09T17:29:24;18.10;99.90
9658;DHT22;4867;48.112;11.622;2022-09-09T17:31:52;17.90;99.90
9658;DHT22;4867;48.112;11.622;2022-09-09T17:34:20;17.80;99.90
9658;DHT22;4867;48.112;11.622;2022-09-09T17:36:48;17.80;99.90
9658;DHT22;4867;48.112;11.622;2022-09-09T17:39:15;17.60;99.90
9658;DHT22;4867;48.112;11.622;2022-09-09T17:41:42;17.50;99.90
9658;DHT22;4867;48.112;11.622;2022-09-09T17:44:10;17.40;99.90
9658;DHT22;4867;48.112;11.622;2022-09-09T17:46:40;17.30;99.90
9658;DHT22;4867;48.112;11.622;2022-09-09T17:49:11;17.20;99.90
9658;DHT22;4867;48.112;11.622;2022-09-09T17:51:40;17.10;99.90
9658;DHT22;4867;48.112;11.622;2022-09-09T17:54:15;17.00;99.90
9658;DHT22;4867;48.112;11.622;2022-09-09T17:56:44;16.90;99.90
9658;DHT22;4867;48.112;11.622;2022-09-09T17:59:12;16.80;99.90
9658;DHT22;4867;48.112;11.622;2022-09-09T18:01:43;16.90;99.90
9658;DHT22;4867;48.112;11.622;2022-09-09T18:04:12;16.70;99.90
9658;DHT22;4867;48.112;11.622;2022-09-09T18:06:43;16.70;99.90